createdAt,value
2019-05-22T09:45:09.114Z,23.40
2019-05-22T09:47:37.747Z,23.40
2019-05-22T09:50:09.497Z,23.40
2019-05-22T09:52:38.035Z,23.50
2019-05-22T09:55:06.106Z,23.60
2019-05-22T09:57:35.643Z,23.70
2019-05-22T10:00:05.651Z,23.50
2019-05-22T10:02:33.727Z,23.60
2019-05-22T10:05:01.766Z,23.70
2019-05-22T10:07:30.100Z,23.70
2019-05-22T10:09:57.964Z,23.70
2019-05-22T10:12:26.202Z,23.60
2019-05-22T10:14:54.070Z,23.60
2019-05-22T10:17:22.030Z,23.70
2019-05-22T10:19:50.198Z,23.80
2019-05-22T10:22:18.912Z,23.80
2019-05-22T10:24:50.146Z,23.70
2019-05-22T10:27:18.010Z,23.70
2019-05-22T10:29:46.273Z,23.70
2019-05-22T10:32:14.488Z,23.70
2019-05-22T10:34:42.362Z,23.70
2019-05-22T10:37:10.794Z,23.70
2019-05-22T10:39:38.754Z,23.80
2019-05-22T10:42:06.825Z,23.80
2019-05-22T10:44:34.689Z,24.00
2019-05-22T10:47:03.227Z,24.00
2019-05-22T10:49:31.174Z,24.10
2019-05-22T10:51:59.073Z,24.10
2019-05-22T10:54:26.932Z,24.20
2019-05-22T10:56:54.816Z,24.20
2019-05-22T10:59:23.147Z,24.20
2019-05-22T11:01:51.197Z,24.30
2019-05-22T11:04:19.823Z,24.30
2019-05-22T11:06:47.878Z,24.30
2019-05-22T11:09:16.109Z,24.20
2019-05-22T11:11:43.979Z,24.20
2019-05-22T11:14:12.521Z,24.20
2019-05-22T11:16:40.687Z,24.30
2019-05-22T11:19:08.553Z,24.40
2019-05-22T11:21:37.287Z,24.40
2019-05-22T11:24:05.422Z,24.40
2019-05-22T11:26:33.495Z,24.40
2019-05-22T11:29:01.445Z,24.40
2019-05-22T11:31:29.587Z,24.50
2019-05-22T11:33:57.455Z,24.50
2019-05-22T11:36:25.796Z,24.50
2019-05-22T11:38:53.655Z,24.50
2019-05-22T11:41:21.717Z,24.60
2019-05-22T11:43:49.571Z,24.70
2019-05-22T11:46:17.694Z,24.60
2019-05-22T11:48:45.661Z,24.60
2019-05-22T11:51:14.005Z,24.70
2019-05-22T11:53:42.438Z,24.70
2019-05-22T11:56:10.303Z,24.80
2019-05-22T11:58:38.162Z,24.80
2019-05-22T12:01:06.602Z,24.80
2019-05-22T12:03:35.243Z,24.80
2019-05-22T12:06:04.081Z,24.80
2019-05-22T12:08:32.009Z,25.00
2019-05-22T12:11:00.036Z,25.00
2019-05-22T12:13:28.304Z,24.90
2019-05-22T12:15:56.263Z,24.80
2019-05-22T12:18:24.890Z,24.70
2019-05-22T12:20:52.963Z,24.70
2019-05-22T12:23:21.139Z,24.60
2019-05-22T12:25:49.006Z,24.60
2019-05-22T12:28:17.814Z,24.60
2019-05-22T12:30:46.460Z,24.60
2019-05-22T12:33:14.605Z,24.50
2019-05-22T12:35:43.279Z,24.50
2019-05-22T12:38:12.721Z,24.60
2019-05-22T12:40:41.641Z,24.60
2019-05-22T12:43:09.711Z,24.50
2019-05-22T12:45:37.579Z,24.40
2019-05-22T12:48:05.914Z,24.30
2019-05-22T12:50:34.347Z,24.20
2019-05-22T12:53:03.383Z,24.30
2019-05-22T12:55:31.968Z,24.30
2019-05-22T12:58:00.140Z,24.20
2019-05-22T13:00:28.562Z,24.20
2019-05-22T13:02:57.007Z,24.30
2019-05-22T13:05:25.339Z,24.30
2019-05-22T13:07:53.508Z,24.40
2019-05-22T13:10:22.339Z,24.30
2019-05-22T13:12:50.204Z,24.20
2019-05-22T13:15:18.578Z,24.20
2019-05-22T13:17:47.111Z,24.40
2019-05-22T13:20:16.445Z,24.70
2019-05-22T13:22:47.611Z,24.90
2019-05-22T13:25:16.829Z,25.00
2019-05-22T13:27:44.689Z,25.10
2019-05-22T13:30:14.308Z,25.10
2019-05-22T13:32:43.566Z,25.10
2019-05-22T13:35:13.541Z,25.10
2019-05-22T13:37:41.517Z,25.20
2019-05-22T13:40:26.439Z,25.40
2019-05-22T13:42:41.062Z,25.50
2019-05-22T13:47:38.296Z,25.60
2019-05-22T13:50:07.150Z,25.80
2019-05-22T13:52:35.362Z,25.80
2019-05-22T13:55:04.691Z,25.70
2019-05-22T13:57:32.840Z,25.70
2019-05-22T14:00:00.688Z,25.60
2019-05-22T14:02:29.362Z,25.60
2019-05-22T14:04:57.723Z,25.60
2019-05-22T14:07:26.348Z,25.50
2019-05-22T14:09:54.934Z,25.50
2019-05-22T14:12:22.810Z,25.40
2019-05-22T14:14:51.105Z,25.30
2019-05-22T14:17:18.982Z,25.20
2019-05-22T14:19:46.847Z,25.20
2019-05-22T14:22:14.714Z,25.10
2019-05-22T14:24:42.588Z,25.00
2019-05-22T14:27:10.452Z,25.00
2019-05-22T14:29:38.305Z,25.00
2019-05-22T14:32:08.459Z,24.90
2019-05-22T14:34:36.502Z,24.80
2019-05-22T14:37:05.135Z,24.80
2019-05-22T14:39:33.026Z,24.70
2019-05-22T14:42:01.459Z,24.60
2019-05-22T14:44:29.332Z,24.50
2019-05-22T14:47:10.633Z,24.40
2019-05-22T14:49:27.114Z,24.40
2019-05-22T14:51:55.350Z,24.50
2019-05-22T14:54:23.508Z,24.40
2019-05-22T14:56:51.447Z,24.30
2019-05-22T14:59:19.682Z,24.30
2019-05-22T15:01:47.547Z,24.30
2019-05-22T15:04:15.584Z,24.30
2019-05-22T15:06:43.556Z,24.30
2019-05-22T15:09:11.809Z,24.30
2019-05-22T15:11:39.853Z,24.30
2019-05-22T15:14:07.715Z,24.20
2019-05-22T15:16:35.790Z,24.10
2019-05-22T15:19:03.761Z,24.20
2019-05-22T15:21:31.699Z,24.20
2019-05-22T15:23:59.839Z,24.20
2019-05-22T15:26:28.173Z,24.10
2019-05-22T15:28:56.238Z,24.10
2019-05-22T15:31:24.313Z,24.10
2019-05-22T15:33:52.654Z,24.10
2019-05-22T15:36:22.695Z,24.10
2019-05-22T15:38:50.558Z,24.10
2019-05-22T15:41:18.451Z,24.10
2019-05-22T15:43:52.528Z,23.80
2019-05-22T15:46:18.591Z,23.80
2019-05-22T15:48:47.443Z,23.60
2019-05-22T15:51:16.784Z,23.50
2019-05-22T15:53:45.319Z,23.30
2019-05-22T15:56:13.454Z,23.10
2019-05-22T15:58:42.806Z,22.90
2019-05-22T16:01:12.926Z,22.90
2019-05-22T16:03:42.276Z,22.90
2019-05-22T16:06:10.545Z,22.90
2019-05-22T16:08:38.532Z,22.80
2019-05-22T16:11:08.727Z,22.80
2019-05-22T16:13:38.247Z,22.90
2019-05-22T16:16:06.493Z,22.90
2019-05-22T16:18:35.531Z,23.00
2019-05-22T16:21:04.786Z,23.00
2019-05-22T16:23:34.371Z,23.00
2019-05-22T16:26:03.688Z,23.00
2019-05-22T16:28:35.987Z,23.00
2019-05-22T16:31:04.777Z,23.10
2019-05-22T16:33:33.212Z,23.10
2019-05-22T16:36:01.356Z,23.20
2019-05-22T16:38:29.236Z,23.20
2019-05-22T16:40:57.302Z,23.30
2019-05-22T16:43:45.443Z,23.30
2019-05-22T16:45:56.013Z,23.30
2019-05-22T16:48:29.010Z,23.30
2019-05-22T16:50:55.043Z,23.30
2019-05-22T16:53:23.309Z,23.30
2019-05-22T16:55:51.678Z,23.40
2019-05-22T16:58:19.820Z,23.40
2019-05-22T17:00:49.460Z,23.40
2019-05-22T17:03:18.220Z,23.50
2019-05-22T17:05:46.260Z,23.40
2019-05-22T17:08:15.031Z,23.50
2019-05-22T17:10:43.310Z,23.40
2019-05-22T17:13:12.650Z,23.40
2019-05-22T17:15:40.521Z,23.50
2019-05-22T17:18:09.259Z,23.50
2019-05-22T17:20:37.700Z,23.40
2019-05-22T17:23:05.939Z,23.40
2019-05-22T17:25:33.970Z,23.40
2019-05-22T17:28:02.428Z,23.40
2019-05-22T17:30:30.273Z,23.40
2019-05-22T17:32:59.349Z,23.30
2019-05-22T17:35:28.055Z,23.20
2019-05-22T17:37:57.329Z,23.20
2019-05-22T17:40:25.859Z,23.10
2019-05-22T17:42:55.122Z,23.10
2019-05-22T17:45:25.664Z,23.00
2019-05-22T17:47:54.608Z,23.00
2019-05-22T17:50:26.897Z,22.90
2019-05-22T17:52:53.552Z,22.80
2019-05-22T17:55:21.592Z,22.90
2019-05-22T17:57:49.482Z,22.80
2019-05-22T18:00:32.631Z,22.70
2019-05-22T18:03:01.196Z,22.70
2019-05-22T18:05:29.242Z,22.70
2019-05-22T18:07:57.373Z,22.60
2019-05-22T18:10:25.812Z,22.60
2019-05-22T18:12:53.682Z,22.50
2019-05-22T18:15:21.728Z,22.50
2019-05-22T18:17:50.162Z,22.40
2019-05-22T18:20:19.125Z,22.30
2019-05-22T18:22:47.101Z,22.30
2019-05-22T18:25:15.221Z,22.20
2019-05-22T18:27:43.565Z,22.20
2019-05-22T18:30:11.729Z,22.10
2019-05-22T18:32:41.171Z,22.10
2019-05-22T18:35:09.227Z,22.00
2019-05-22T18:37:37.115Z,21.90
2019-05-22T18:40:06.165Z,21.90
2019-05-22T18:42:34.317Z,21.80
2019-05-22T18:45:02.348Z,21.70
2019-05-22T18:47:30.436Z,21.70
2019-05-22T18:49:58.287Z,21.60
2019-05-22T18:52:39.847Z,21.60
2019-05-22T18:54:55.830Z,21.50
2019-05-22T18:57:24.059Z,21.40
2019-05-22T18:59:59.582Z,21.40
2019-05-22T19:02:21.650Z,21.30
2019-05-22T19:04:49.615Z,21.20
2019-05-22T19:07:17.485Z,21.20
2019-05-22T19:09:45.552Z,21.30
2019-05-22T19:12:13.734Z,21.30
2019-05-22T19:14:41.605Z,21.30
2019-05-22T19:17:09.638Z,21.20
2019-05-22T19:19:38.479Z,21.20
2019-05-22T19:22:06.334Z,21.20
2019-05-22T19:24:34.211Z,21.20
2019-05-22T19:27:02.067Z,21.20
2019-05-22T19:29:30.268Z,21.20
2019-05-22T19:31:58.094Z,21.20
2019-05-22T19:34:26.336Z,21.20
2019-05-22T19:36:54.204Z,21.20
2019-05-22T19:39:22.075Z,21.10
2019-05-22T19:42:01.980Z,21.10
2019-05-22T19:44:20.533Z,21.00
2019-05-22T19:46:49.493Z,20.90
2019-05-22T19:49:17.838Z,20.80
2019-05-22T19:51:46.170Z,20.80
2019-05-22T19:54:14.415Z,20.70
2019-05-22T19:56:42.863Z,20.70
2019-05-22T19:59:11.403Z,20.60
2019-05-22T20:01:40.045Z,20.60
2019-05-22T20:04:07.912Z,20.60
2019-05-22T20:06:38.234Z,20.50
2019-05-22T20:09:07.629Z,20.50
2019-05-22T20:11:35.499Z,20.40
2019-05-22T20:14:03.739Z,20.50
2019-05-22T20:16:31.625Z,20.40
2019-05-22T20:18:59.838Z,20.40
2019-05-22T20:21:28.178Z,20.30
2019-05-22T20:23:56.039Z,20.20
2019-05-22T20:26:24.377Z,20.20
2019-05-22T20:28:52.325Z,20.20
2019-05-22T20:31:20.462Z,20.10
2019-05-22T20:33:48.398Z,20.00
2019-05-22T20:36:17.035Z,20.00
2019-05-22T20:38:45.613Z,20.00
2019-05-22T20:41:13.470Z,20.00
2019-05-22T20:43:41.540Z,19.90
2019-05-22T20:46:09.588Z,19.90
2019-05-22T20:48:38.336Z,19.90
2019-05-22T20:51:07.669Z,19.80
2019-05-22T20:53:52.905Z,19.80
2019-05-22T20:56:08.544Z,19.70
2019-05-22T20:58:41.157Z,19.70
2019-05-22T21:01:09.016Z,19.70
2019-05-22T21:03:37.284Z,19.70
2019-05-22T21:06:08.227Z,19.70
2019-05-22T21:08:36.871Z,19.70
2019-05-22T21:11:05.398Z,19.70
2019-05-22T21:13:34.536Z,19.70
2019-05-22T21:16:03.508Z,19.70
2019-05-22T21:18:39.246Z,19.60
2019-05-22T21:21:07.906Z,19.50
2019-05-22T21:23:36.239Z,19.40
2019-05-22T21:26:05.064Z,19.40
2019-05-22T21:28:32.934Z,19.30
2019-05-22T21:31:02.385Z,19.30
2019-05-22T21:33:30.270Z,19.20
2019-05-22T21:35:58.431Z,19.20
2019-05-22T21:38:26.590Z,19.10
2019-05-22T21:40:54.729Z,19.10
2019-05-22T21:43:22.984Z,19.10
2019-05-22T21:45:51.065Z,19.00
2019-05-22T21:48:19.299Z,18.90
2019-05-22T21:50:47.169Z,18.90
2019-05-22T21:53:15.303Z,18.90
2019-05-22T21:55:45.667Z,18.90
2019-05-22T21:58:14.412Z,18.90
2019-05-22T22:00:45.522Z,18.80
2019-05-22T22:03:18.635Z,18.80
2019-05-22T22:05:46.866Z,18.80
2019-05-22T22:08:15.195Z,18.70
2019-05-22T22:10:43.058Z,18.70
2019-05-22T22:13:10.921Z,18.70
2019-05-22T22:15:43.184Z,18.70
2019-05-22T22:18:12.118Z,18.60
2019-05-22T22:20:40.356Z,18.60
2019-05-22T22:23:10.094Z,18.60
2019-05-22T22:25:38.531Z,18.50
2019-05-22T22:28:06.399Z,18.50
2019-05-22T22:30:35.901Z,18.50
2019-05-22T22:33:05.259Z,18.50
2019-05-22T22:35:33.490Z,18.50
2019-05-22T22:38:02.428Z,18.50
2019-05-22T22:40:30.411Z,18.40
2019-05-22T22:42:59.908Z,18.40
2019-05-22T22:45:33.718Z,18.40
2019-05-22T22:48:02.015Z,18.40
2019-05-22T22:50:31.150Z,18.40
2019-05-22T22:53:00.681Z,18.40
2019-05-22T22:55:29.613Z,18.40
2019-05-22T22:57:57.786Z,18.30
2019-05-22T23:00:27.414Z,18.20
2019-05-22T23:02:56.846Z,18.20
2019-05-22T23:05:25.189Z,18.20
2019-05-22T23:07:54.718Z,18.10
2019-05-22T23:10:23.687Z,18.00
2019-05-22T23:12:53.490Z,17.90
2019-05-22T23:15:22.072Z,17.80
2019-05-22T23:17:50.507Z,17.80
2019-05-22T23:20:17.774Z,17.80
2019-05-22T23:22:45.018Z,17.70
2019-05-22T23:25:12.887Z,17.70
2019-05-22T23:27:40.749Z,17.60
2019-05-22T23:30:10.786Z,17.60
2019-05-22T23:32:40.688Z,17.60
2019-05-22T23:35:08.834Z,17.60
2019-05-22T23:37:37.058Z,17.50
2019-05-22T23:40:06.994Z,17.50
2019-05-22T23:42:37.971Z,17.50
2019-05-22T23:45:07.574Z,17.40
2019-05-22T23:47:36.918Z,17.40
2019-05-22T23:50:07.054Z,17.40
2019-05-22T23:52:35.293Z,17.30
2019-05-22T23:55:03.527Z,17.30
2019-05-22T23:57:32.062Z,17.30
